createdAt,value
2016-04-16T00:00:49.149Z,25.76
2016-04-16T00:01:49.168Z,26.25
2016-04-16T00:02:49.217Z,25.66
2016-04-16T00:03:49.267Z,25.85
2016-04-16T00:04:49.270Z,25.66
2016-04-16T00:05:49.288Z,25.76
2016-04-16T00:06:49.338Z,25.66
2016-04-16T00:07:49.355Z,25.76
2016-04-16T00:08:49.390Z,25.76
2016-04-16T00:09:49.408Z,26.05
2016-04-16T00:10:49.442Z,25.95
2016-04-16T00:11:49.460Z,25.85
2016-04-16T00:12:49.493Z,25.85
2016-04-16T00:13:49.543Z,25.85
2016-04-16T00:14:49.531Z,25.56
2016-04-16T00:15:49.565Z,25.56
2016-04-16T00:16:49.630Z,26.05
2016-04-16T00:17:49.633Z,25.46
2016-04-16T00:18:49.667Z,25.76
2016-04-16T00:19:49.701Z,25.47
2016-04-16T00:20:49.719Z,25.66
2016-04-16T00:21:49.737Z,25.95
2016-04-16T00:22:49.771Z,25.85
2016-04-16T00:23:49.790Z,25.85
2016-04-16T00:24:49.824Z,25.76
2016-04-16T00:25:49.842Z,25.56
2016-04-16T00:26:49.923Z,25.56
2016-04-16T00:27:49.894Z,25.85
2016-04-16T00:28:49.772Z,25.27
2016-04-16T00:29:49.962Z,25.37
2016-04-16T00:30:49.980Z,25.47
2016-04-16T00:31:50.014Z,25.37
2016-04-16T00:32:50.079Z,25.47
2016-04-16T00:33:50.066Z,25.85
2016-04-16T00:34:50.100Z,25.85
2016-04-16T00:35:50.119Z,25.47
2016-04-16T00:36:50.169Z,25.76
2016-04-16T00:37:50.171Z,25.66
2016-04-16T00:38:50.221Z,25.56
2016-04-16T00:39:50.238Z,25.56
2016-04-16T00:40:50.257Z,25.56
2016-04-16T00:41:50.291Z,25.66
2016-04-16T00:42:50.324Z,25.56
2016-04-16T00:43:50.343Z,25.56
2016-04-16T00:44:50.376Z,25.56
2016-04-16T00:45:50.395Z,25.95
2016-04-16T00:46:50.445Z,25.85
2016-04-16T00:47:50.463Z,25.66
2016-04-16T00:48:50.498Z,25.85
2016-04-16T00:49:50.501Z,25.56
2016-04-16T00:50:50.550Z,25.85
2016-04-16T00:51:50.584Z,25.56
2016-04-16T00:52:50.586Z,25.66
2016-04-16T00:53:50.637Z,25.27
2016-04-16T00:54:50.670Z,25.66
2016-04-16T00:55:50.673Z,25.27
2016-04-16T00:56:50.723Z,25.56
2016-04-16T00:57:50.725Z,25.37
2016-04-16T00:58:50.806Z,25.66
2016-04-16T00:59:50.777Z,25.66
2016-04-16T01:00:50.811Z,25.76
2016-04-16T01:01:50.844Z,25.47
2016-04-16T01:02:50.878Z,25.47
2016-04-16T01:03:50.913Z,25.47
2016-04-16T01:04:50.916Z,25.37
2016-04-16T01:05:50.950Z,25.66
2016-04-16T01:06:50.983Z,25.37
2016-04-16T01:07:51.002Z,25.66
2016-04-16T01:08:51.035Z,25.55
2016-04-16T01:09:51.069Z,25.74
2016-04-16T01:10:51.088Z,25.66
2016-04-16T01:11:51.121Z,25.56
2016-04-16T01:12:51.140Z,25.47
2016-04-16T01:13:51.173Z,25.66
2016-04-16T01:14:51.193Z,25.66
2016-04-16T01:15:51.242Z,25.47
2016-04-16T01:16:51.276Z,25.37
2016-04-16T01:17:51.309Z,25.56
2016-04-16T01:18:51.312Z,25.56
2016-04-16T01:19:51.331Z,25.37
2016-04-16T01:20:51.364Z,25.66
2016-04-16T01:21:51.384Z,25.37
2016-04-16T01:22:51.417Z,25.76
2016-04-16T01:23:51.451Z,25.56
2016-04-16T01:24:51.500Z,25.27
2016-04-16T01:25:51.519Z,25.37
2016-04-16T01:26:51.536Z,25.47
2016-04-16T01:27:51.586Z,25.66
2016-04-16T01:28:51.589Z,25.47
2016-04-16T01:29:51.623Z,25.56
2016-04-16T01:30:51.641Z,25.56
2016-04-16T01:31:51.660Z,25.47
2016-04-16T01:32:51.694Z,25.66
2016-04-16T01:33:51.727Z,25.56
2016-04-16T01:34:51.761Z,25.47
2016-04-16T01:35:51.780Z,25.47
2016-04-16T01:36:51.813Z,25.37
2016-04-16T01:37:51.832Z,25.27
2016-04-16T01:38:51.866Z,25.37
2016-04-16T01:39:51.899Z,25.37
2016-04-16T01:40:51.918Z,25.74
2016-04-16T01:41:51.952Z,25.37
2016-04-16T01:42:52.048Z,25.56
2016-04-16T01:43:51.988Z,25.56
2016-04-16T01:44:52.038Z,25.37
2016-04-16T01:45:52.057Z,25.47
2016-04-16T01:46:52.091Z,25.27
2016-04-16T01:47:52.110Z,25.47
2016-04-16T01:48:52.143Z,25.56
2016-04-16T01:49:52.162Z,25.76
2016-04-16T01:50:52.195Z,25.65
2016-04-16T01:51:52.214Z,25.66
2016-04-16T01:52:52.262Z,25.66
2016-04-16T01:53:52.328Z,25.66
2016-04-16T01:54:52.315Z,25.66
2016-04-16T01:55:52.350Z,25.76
2016-04-16T01:56:52.353Z,25.66
2016-04-16T01:57:52.401Z,25.76
2016-04-16T01:58:52.436Z,25.56
2016-04-16T01:59:52.453Z,25.66
2016-04-16T02:00:52.519Z,25.56
2016-04-16T02:01:52.505Z,25.76
2016-04-16T02:02:52.528Z,25.37
2016-04-16T02:03:52.562Z,25.66
2016-04-16T02:04:52.580Z,25.65
2016-04-16T02:05:52.614Z,25.37
2016-04-16T02:06:52.648Z,25.47
2016-04-16T02:07:52.698Z,25.76
2016-04-16T02:08:52.700Z,25.37
2016-04-16T02:09:52.734Z,25.47
2016-04-16T02:10:52.753Z,25.46
2016-04-16T02:11:52.787Z,25.37
2016-04-16T02:12:52.821Z,25.66
2016-04-16T02:13:52.839Z,25.56
2016-04-16T02:14:52.858Z,25.27
2016-04-16T02:15:52.891Z,25.37
2016-04-16T02:16:52.925Z,25.37
2016-04-16T02:17:52.958Z,25.47
2016-04-16T02:18:52.977Z,25.76
2016-04-16T02:19:53.011Z,25.37
2016-04-16T02:20:53.030Z,25.47
2016-04-16T02:21:53.065Z,25.36
2016-04-16T02:22:53.085Z,25.37
2016-04-16T02:23:53.118Z,25.36
2016-04-16T02:24:53.137Z,25.26
2016-04-16T02:25:53.170Z,25.47
2016-04-16T02:26:53.188Z,25.47
2016-04-16T02:27:53.223Z,25.37
2016-04-16T02:28:53.240Z,25.37
2016-04-16T02:29:53.276Z,25.37
2016-04-16T02:30:53.309Z,25.56
2016-04-16T02:31:53.343Z,25.27
2016-04-16T02:32:53.361Z,25.37
2016-04-16T02:33:53.395Z,25.47
2016-04-16T02:34:53.413Z,25.26
2016-04-16T02:35:53.462Z,25.47
2016-04-16T02:36:53.465Z,25.27
2016-04-16T02:37:53.515Z,25.47
2016-04-16T02:38:53.534Z,25.56
2016-04-16T02:39:53.567Z,25.37
2016-04-16T02:40:53.617Z,25.37
2016-04-16T02:41:53.603Z,25.47
2016-04-16T02:42:53.638Z,25.46
2016-04-16T02:43:53.655Z,25.37
2016-04-16T02:44:53.746Z,25.37
2016-04-16T02:45:53.652Z,25.27
2016-04-16T02:46:53.884Z,25.47
2016-04-16T02:47:53.946Z,25.47
2016-04-16T02:48:54.022Z,25.37
2016-04-16T02:49:54.057Z,25.37
2016-04-16T02:50:54.121Z,25.37
2016-04-16T02:51:54.155Z,25.37
2016-04-16T02:52:54.189Z,25.37
2016-04-16T02:53:54.239Z,25.37
2016-04-16T02:54:54.294Z,25.27
2016-04-16T02:55:54.302Z,25.27
2016-04-16T02:56:54.342Z,25.27
2016-04-16T02:57:54.366Z,25.66
2016-04-16T02:58:54.405Z,25.55
2016-04-16T02:59:54.426Z,25.37
2016-04-16T03:00:54.462Z,25.76
2016-04-16T03:01:54.497Z,25.27
2016-04-16T03:02:54.534Z,25.27
2016-04-16T03:03:54.554Z,25.47
2016-04-16T03:04:54.619Z,25.27
2016-04-16T03:05:54.623Z,25.47
2016-04-16T03:06:54.642Z,25.37
2016-04-16T03:07:54.693Z,25.37
2016-04-16T03:08:54.696Z,25.27
2016-04-16T03:09:54.730Z,25.66
2016-04-16T03:10:54.593Z,25.27
2016-04-16T03:11:54.815Z,25.37
2016-04-16T03:12:54.803Z,25.27
2016-04-16T03:13:54.853Z,25.47
2016-04-16T03:14:54.870Z,25.56
2016-04-16T03:15:54.904Z,25.27
2016-04-16T03:16:54.923Z,25.47
2016-04-16T03:17:54.956Z,25.56
2016-04-16T03:18:54.975Z,25.56
2016-04-16T03:19:55.055Z,25.76
2016-04-16T03:20:55.028Z,25.47
2016-04-16T03:21:55.061Z,25.56
2016-04-16T03:22:55.080Z,25.47
2016-04-16T03:23:55.129Z,25.36
2016-04-16T03:24:55.132Z,25.27
2016-04-16T03:25:55.165Z,25.47
2016-04-16T03:26:55.183Z,25.37
2016-04-16T03:27:55.218Z,25.37
2016-04-16T03:28:55.252Z,25.47
2016-04-16T03:29:55.271Z,25.27
2016-04-16T03:30:55.304Z,25.27
2016-04-16T03:31:55.322Z,25.37
2016-04-16T03:32:55.357Z,25.27
2016-04-16T03:33:55.390Z,25.37
2016-04-16T03:34:55.409Z,25.27
2016-04-16T03:35:55.489Z,25.27
2016-04-16T03:36:55.476Z,25.18
2016-04-16T03:37:55.495Z,25.18
2016-04-16T03:38:55.545Z,25.18
2016-04-16T03:39:55.562Z,24.88
2016-04-16T03:40:55.596Z,24.79
2016-04-16T03:41:55.599Z,25.08
2016-04-16T03:42:55.633Z,25.27
2016-04-16T03:43:55.668Z,25.08
2016-04-16T03:44:55.701Z,25.16
2016-04-16T03:45:55.720Z,25.27
2016-04-16T03:46:55.737Z,24.98
2016-04-16T03:47:55.772Z,25.18
2016-04-16T03:48:55.806Z,25.18
2016-04-16T03:49:55.824Z,25.18
2016-04-16T03:50:55.889Z,24.98
2016-04-16T03:51:55.891Z,24.98
2016-04-16T03:52:55.942Z,24.88
2016-04-16T03:53:55.944Z,24.79
2016-04-16T03:54:55.994Z,24.79
2016-04-16T03:55:55.996Z,24.79
2016-04-16T03:56:56.030Z,25.08
2016-04-16T03:57:56.049Z,24.98
2016-04-16T03:58:56.082Z,25.08
2016-04-16T03:59:56.116Z,24.98
2016-04-16T04:00:56.134Z,24.98
2016-04-16T04:01:56.168Z,25.08
2016-04-16T04:02:56.187Z,25.07
2016-04-16T04:03:56.221Z,24.98
2016-04-16T04:04:56.240Z,25.18
2016-04-16T04:05:56.273Z,25.08
2016-04-16T04:06:56.354Z,25.18
2016-04-16T04:07:56.325Z,24.98
2016-04-16T04:08:56.421Z,24.98
2016-04-16T04:09:56.393Z,25.08
2016-04-16T04:10:56.427Z,24.88
2016-04-16T04:11:56.430Z,24.98
2016-04-16T04:12:56.464Z,24.98
2016-04-16T04:13:56.498Z,24.88
2016-04-16T04:14:56.516Z,24.98
2016-04-16T04:15:56.550Z,24.88
2016-04-16T04:16:56.584Z,24.6
2016-04-16T04:17:57.024Z,24.79
2016-04-16T04:18:56.620Z,24.98
2016-04-16T04:19:56.655Z,24.69
2016-04-16T04:20:56.704Z,24.98
2016-04-16T04:21:56.723Z,24.98
2016-04-16T04:22:56.741Z,24.98
2016-04-16T04:23:56.775Z,24.79
2016-04-16T04:24:56.793Z,24.79
2016-04-16T04:25:56.858Z,24.78
2016-04-16T04:26:57.141Z,24.79
2016-04-16T04:27:56.894Z,24.98
2016-04-16T04:28:56.913Z,24.79
2016-04-16T04:29:56.932Z,24.79
2016-04-16T04:30:56.950Z,24.79
2016-04-16T04:31:56.999Z,25.08
2016-04-16T04:32:57.033Z,24.88
2016-04-16T04:33:57.082Z,24.88
2016-04-16T04:34:57.071Z,24.69
2016-04-16T04:35:57.229Z,24.6
2016-04-16T04:36:56.404Z,24.98
2016-04-16T04:37:57.172Z,24.69
2016-04-16T04:38:57.206Z,24.79
2016-04-16T04:39:57.209Z,24.69
2016-04-16T04:40:57.226Z,24.88
2016-04-16T04:41:57.260Z,24.69
2016-04-16T04:42:57.294Z,24.4
2016-04-16T04:43:57.313Z,24.4
2016-04-16T04:44:57.347Z,24.79
2016-04-16T04:45:57.396Z,24.79
2016-04-16T04:46:57.399Z,24.69
2016-04-16T04:47:57.433Z,24.69
2016-04-16T04:48:57.451Z,24.79
2016-04-16T04:49:57.500Z,24.6
2016-04-16T04:50:57.581Z,24.5
2016-04-16T04:51:56.819Z,24.6
2016-04-16T04:52:57.572Z,24.69
2016-04-16T04:53:57.590Z,24.6
2016-04-16T04:54:57.624Z,24.6
2016-04-16T04:55:57.642Z,24.69
2016-04-16T04:56:57.675Z,24.6
2016-04-16T04:57:57.710Z,24.5
2016-04-16T04:58:57.727Z,24.6
2016-04-16T04:59:57.763Z,24.6
2016-04-16T05:00:57.780Z,24.69
2016-04-16T05:01:57.814Z,24.6
2016-04-16T05:02:57.833Z,24.4
2016-04-16T05:03:57.882Z,24.4
2016-04-16T05:04:57.916Z,24.5
2016-04-16T05:05:57.965Z,24.11
2016-04-16T05:06:57.952Z,24.4
2016-04-16T05:07:58.005Z,24.19
2016-04-16T05:08:58.008Z,24.4
2016-04-16T05:09:58.073Z,24.11
2016-04-16T05:10:58.060Z,24.3
2016-04-16T05:11:58.093Z,24.5
2016-04-16T05:12:58.113Z,24.4
2016-04-16T05:13:58.162Z,24.11
2016-04-16T05:14:58.181Z,24.02
2016-04-16T05:15:58.199Z,24.02
2016-04-16T05:16:58.232Z,24.02
2016-04-16T05:17:58.250Z,24.02
2016-04-16T05:18:58.284Z,24.21
2016-04-16T05:19:58.319Z,24.02
2016-04-16T05:20:58.431Z,24.3
2016-04-16T05:21:58.371Z,24.21
2016-04-16T05:22:58.421Z,24.3
2016-04-16T05:23:58.423Z,24.3
2016-04-16T05:24:58.442Z,24.21
2016-04-16T05:25:58.476Z,24.3
2016-04-16T05:26:58.509Z,24.3
2016-04-16T05:27:58.527Z,24.3
2016-04-16T05:28:58.562Z,24.3
2016-04-16T05:29:58.596Z,24.3
2016-04-16T05:30:58.614Z,24.3
2016-04-16T05:31:58.648Z,24.21
2016-04-16T05:32:58.667Z,24.21
2016-04-16T05:33:58.700Z,24.21
2016-04-16T05:34:58.734Z,24.29
2016-04-16T05:35:58.752Z,24.3
2016-04-16T05:36:58.786Z,24.4
2016-04-16T05:37:58.821Z,24.21
2016-04-16T05:38:58.838Z,23.92
2016-04-16T05:39:58.857Z,24.21
2016-04-16T05:40:58.891Z,24.4
2016-04-16T05:41:58.925Z,24.21
2016-04-16T05:42:58.943Z,24.21
2016-04-16T05:43:58.977Z,24.21
2016-04-16T05:44:58.995Z,24.3
2016-04-16T05:45:59.029Z,24.21
2016-04-16T05:46:59.063Z,24.01
2016-04-16T05:47:59.081Z,23.92
2016-04-16T05:48:58.960Z,24.3
2016-04-16T05:49:59.150Z,24.02
2016-04-16T05:50:59.199Z,24.3
2016-04-16T05:51:59.201Z,24.11
2016-04-16T05:52:59.251Z,24.3
2016-04-16T05:53:59.254Z,24.5
2016-04-16T05:54:59.288Z,24.4
2016-04-16T05:55:59.306Z,24.11
2016-04-16T05:56:59.340Z,24.5
2016-04-16T05:57:59.374Z,24.5
2016-04-16T05:58:59.252Z,24.3
2016-04-16T05:59:59.410Z,24.3
2016-04-16T06:00:59.461Z,24.4
2016-04-16T06:01:59.478Z,24.4
2016-04-16T06:02:59.513Z,24.4
2016-04-16T06:03:59.530Z,24.4
2016-04-16T06:04:59.549Z,24.5
2016-04-16T06:05:59.583Z,24.6
2016-04-16T06:06:59.616Z,24.6
2016-04-16T06:07:59.651Z,24.69
2016-04-16T06:08:59.669Z,24.69
2016-04-16T06:09:59.703Z,24.6
2016-04-16T06:10:59.721Z,24.5
2016-04-16T06:11:59.740Z,24.69
2016-04-16T06:12:59.774Z,24.5
2016-04-16T06:13:59.808Z,24.69
2016-04-16T06:14:59.826Z,24.6
2016-04-16T06:15:59.891Z,24.6
2016-04-16T06:16:59.879Z,24.69
2016-04-16T06:17:59.913Z,24.79
2016-04-16T06:18:59.946Z,24.4
2016-04-16T06:19:59.981Z,24.4
2016-04-16T06:21:00.217Z,24.79
2016-04-16T06:22:00.048Z,24.4
2016-04-16T06:23:00.050Z,24.5
2016-04-16T06:24:00.085Z,24.88
2016-04-16T06:25:00.103Z,24.69
2016-04-16T06:26:00.137Z,24.79
2016-04-16T06:27:00.171Z,25.08
2016-04-16T06:28:00.189Z,24.79
2016-04-16T06:29:00.238Z,24.79
2016-04-16T06:30:00.242Z,24.88
2016-04-16T06:31:00.275Z,24.79
2016-04-16T06:32:00.294Z,24.88
2016-04-16T06:33:00.327Z,25.08
2016-04-16T06:34:00.361Z,24.88
2016-04-16T06:35:00.380Z,24.79
2016-04-16T06:36:00.413Z,24.79
2016-04-16T06:37:00.448Z,24.88
2016-04-16T06:38:00.466Z,24.79
2016-04-16T06:39:00.500Z,24.88
2016-04-16T06:40:00.534Z,24.88
2016-04-16T06:41:00.537Z,25.08
2016-04-16T06:42:00.602Z,25.08
2016-04-16T06:43:00.605Z,24.79
2016-04-16T06:44:00.639Z,25.08
2016-04-16T06:45:00.673Z,25.08
2016-04-16T06:46:00.676Z,24.79
2016-04-16T06:47:00.709Z,24.79
2016-04-16T06:48:00.743Z,25.08
2016-04-16T06:49:00.777Z,24.79
2016-04-16T06:50:00.795Z,24.98
2016-04-16T06:51:00.829Z,24.88
2016-04-16T06:52:00.848Z,24.88
2016-04-16T06:53:00.882Z,24.98
2016-04-16T06:54:00.915Z,24.88
2016-04-16T06:55:00.934Z,24.79
2016-04-16T06:56:00.968Z,25.08
2016-04-16T06:57:00.986Z,25.08
2016-04-16T06:58:01.036Z,24.79
2016-04-16T06:59:01.117Z,24.79
2016-04-16T07:00:01.088Z,24.69
2016-04-16T07:01:01.106Z,24.69
2016-04-16T07:02:01.125Z,24.79
2016-04-16T07:03:01.158Z,24.69
2016-04-16T07:04:01.208Z,24.6
2016-04-16T07:05:01.211Z,24.6
2016-04-16T07:06:01.260Z,24.69
2016-04-16T07:07:01.263Z,24.88
2016-04-16T07:08:01.313Z,24.6
2016-04-16T07:09:01.330Z,24.69
2016-04-16T07:10:01.380Z,24.69
2016-04-16T07:11:01.382Z,24.88
2016-04-16T07:12:01.417Z,24.69
2016-04-16T07:13:01.436Z,24.6
2016-04-16T07:14:01.468Z,24.6
2016-04-16T07:15:01.504Z,24.88
2016-04-16T07:16:01.521Z,24.79
2016-04-16T07:17:01.555Z,24.6
2016-04-16T07:18:01.574Z,24.6
2016-04-16T07:19:01.623Z,24.6
2016-04-16T07:20:01.657Z,24.98
2016-04-16T07:21:01.690Z,24.69
2016-04-16T07:22:01.709Z,25.08
2016-04-16T07:23:01.728Z,25.18
2016-04-16T07:24:01.730Z,24.69
2016-04-16T07:25:01.780Z,25.08
2016-04-16T07:26:01.829Z,24.88
2016-04-16T07:27:01.832Z,24.88
2016-04-16T07:28:01.881Z,25.08
2016-04-16T07:29:01.916Z,25.08
2016-04-16T07:30:01.919Z,25.08
2016-04-16T07:31:01.953Z,25.18
2016-04-16T07:32:01.987Z,25.08
2016-04-16T07:33:01.989Z,25.18
2016-04-16T07:34:02.055Z,25.18
2016-04-16T07:35:02.041Z,25.18
2016-04-16T07:36:02.075Z,25.27
2016-04-16T07:37:02.125Z,25.08
2016-04-16T07:38:02.143Z,25.08
2016-04-16T07:39:02.161Z,24.98
2016-04-16T07:40:02.195Z,25.08
2016-04-16T07:41:02.198Z,25.08
2016-04-16T07:42:02.233Z,25.08
2016-04-16T07:43:02.265Z,25.08
2016-04-16T07:44:02.284Z,25.08
2016-04-16T07:45:02.318Z,25.18
2016-04-16T07:46:02.352Z,25.08
2016-04-16T07:47:02.371Z,25.18
2016-04-16T07:48:02.389Z,25.18
2016-04-16T07:49:02.470Z,25.08
2016-04-16T07:50:02.519Z,25.08
2016-04-16T07:51:02.475Z,25.08
2016-04-16T07:52:02.524Z,25.08
2016-04-16T07:53:02.543Z,25.08
2016-04-16T07:54:02.577Z,25.08
2016-04-16T07:55:02.595Z,25.08
2016-04-16T07:56:02.629Z,25.08
2016-04-16T07:57:02.648Z,25.08
2016-04-16T07:58:02.682Z,24.98
2016-04-16T07:59:02.730Z,25.08
2016-04-16T08:00:02.749Z,25.18
2016-04-16T08:01:02.768Z,25.08
2016-04-16T08:02:02.817Z,25.18
2016-04-16T08:03:02.819Z,25.08
2016-04-16T08:04:02.869Z,25.08
2016-04-16T08:05:02.872Z,25.08
2016-04-16T08:06:02.906Z,25.08
2016-04-16T08:07:02.924Z,25.18
2016-04-16T08:08:02.942Z,25.18
2016-04-16T08:09:02.977Z,25.18
2016-04-16T08:10:03.027Z,24.88
2016-04-16T08:11:03.029Z,24.88
2016-04-16T08:12:03.078Z,24.88
2016-04-16T08:13:03.096Z,25.08
2016-04-16T08:14:03.130Z,24.79
2016-04-16T08:15:03.149Z,24.98
2016-04-16T08:16:03.010Z,24.98
2016-04-16T08:17:03.222Z,24.98
2016-04-16T08:18:03.240Z,24.98
2016-04-16T08:19:03.274Z,25.08
2016-04-16T08:20:03.277Z,25.18
2016-04-16T08:21:03.310Z,25.18
2016-04-16T08:22:03.344Z,24.98
2016-04-16T08:23:03.379Z,25.08
2016-04-16T08:24:03.428Z,25.08
2016-04-16T08:25:03.478Z,24.98
2016-04-16T08:26:03.464Z,25.08
2016-04-16T08:27:03.483Z,25.08
2016-04-16T08:28:03.517Z,24.88
2016-04-16T08:29:03.550Z,25.08
2016-04-16T08:30:03.569Z,25.37
2016-04-16T08:31:03.619Z,25.27
2016-04-16T08:32:03.622Z,25.27
2016-04-16T08:33:03.655Z,25.47
2016-04-16T08:34:03.674Z,25.47
2016-04-16T08:35:03.708Z,25.76
2016-04-16T08:36:03.585Z,25.47
2016-04-16T08:37:03.744Z,25.56
2016-04-16T08:38:03.794Z,25.66
2016-04-16T08:39:03.812Z,25.37
2016-04-16T08:40:03.846Z,25.37
2016-04-16T08:41:03.864Z,25.37
2016-04-16T08:42:03.898Z,25.56
2016-04-16T08:43:03.916Z,25.66
2016-04-16T08:44:03.951Z,25.76
2016-04-16T08:45:03.985Z,25.56
2016-04-16T08:46:04.003Z,25.66
2016-04-16T08:47:04.037Z,25.85
2016-04-16T08:48:04.087Z,25.66
2016-04-16T08:49:04.089Z,25.85
2016-04-16T08:50:04.107Z,25.76
2016-04-16T08:51:04.157Z,25.56
2016-04-16T08:52:04.176Z,25.85
2016-04-16T08:53:04.193Z,25.85
2016-04-16T08:54:04.228Z,25.66
2016-04-16T08:55:04.246Z,25.56
2016-04-16T08:56:04.279Z,25.66
2016-04-16T08:57:04.314Z,25.56
2016-04-16T08:58:04.316Z,25.66
2016-04-16T08:59:04.366Z,25.56
2016-04-16T09:00:04.383Z,25.76
2016-04-16T09:01:04.418Z,25.85
2016-04-16T09:02:04.452Z,25.56
2016-04-16T09:03:04.486Z,25.37
2016-04-16T09:04:04.489Z,25.37
2016-04-16T09:05:04.522Z,25.37
2016-04-16T09:06:04.541Z,25.37
2016-04-16T09:07:04.575Z,25.56
2016-04-16T09:08:04.594Z,25.76
2016-04-16T09:09:04.643Z,25.66
2016-04-16T09:10:04.661Z,25.85
2016-04-16T09:11:04.694Z,25.66
2016-04-16T09:12:04.729Z,25.76
2016-04-16T09:13:04.779Z,25.66
2016-04-16T09:14:04.781Z,25.76
2016-04-16T09:15:04.799Z,25.66
2016-04-16T09:16:04.833Z,25.76
2016-04-16T09:17:04.868Z,25.76
2016-04-16T09:18:04.918Z,25.85
2016-04-16T09:19:04.934Z,25.76
2016-04-16T09:20:04.953Z,25.85
2016-04-16T09:21:04.987Z,26.05
2016-04-16T09:22:05.006Z,26.05
2016-04-16T09:23:05.023Z,25.76
2016-04-16T09:24:05.059Z,25.76
2016-04-16T09:25:05.076Z,25.76
2016-04-16T09:26:05.126Z,25.66
2016-04-16T09:27:05.144Z,25.76
2016-04-16T09:28:05.162Z,25.85
2016-04-16T09:29:05.197Z,26.05
2016-04-16T09:30:05.215Z,25.76
2016-04-16T09:31:05.234Z,26.05
2016-04-16T09:32:05.283Z,26.25
2016-04-16T09:33:05.286Z,26.34
2016-04-16T09:34:05.350Z,26.15
2016-04-16T09:35:05.353Z,25.95
2016-04-16T09:36:05.371Z,25.85
2016-04-16T09:37:05.421Z,26.05
2016-04-16T09:38:05.517Z,25.95
2016-04-16T09:39:05.458Z,25.95
2016-04-16T09:40:05.492Z,26.25
2016-04-16T09:41:05.541Z,26.25
2016-04-16T09:42:05.544Z,26.25
2016-04-16T09:43:05.609Z,26.15
2016-04-16T09:44:05.627Z,26.15
2016-04-16T09:45:05.629Z,26.05
2016-04-16T09:46:05.663Z,26.15
2016-04-16T09:47:05.682Z,26.15
2016-04-16T09:48:05.716Z,26.15
2016-04-16T09:49:05.734Z,26.15
2016-04-16T09:50:05.768Z,26.05
2016-04-16T09:51:05.802Z,26.25
2016-04-16T09:52:05.821Z,26.53
2016-04-16T09:53:05.840Z,26.34
2016-04-16T09:54:05.889Z,26.15
2016-04-16T09:55:05.907Z,26.15
2016-04-16T09:56:05.940Z,26.43
2016-04-16T09:57:05.975Z,26.53
2016-04-16T09:58:05.978Z,26.25
2016-04-16T09:59:06.027Z,26.43
2016-04-16T10:00:06.045Z,26.53
2016-04-16T10:01:06.063Z,26.53
2016-04-16T10:02:06.098Z,26.43
2016-04-16T10:03:06.117Z,26.34
2016-04-16T10:04:06.166Z,25.95
2016-04-16T10:05:06.199Z,26.05
2016-04-16T10:06:06.217Z,26.34
2016-04-16T10:07:06.236Z,26.53
2016-04-16T10:08:06.270Z,26.34
2016-04-16T10:09:06.289Z,26.43
2016-04-16T10:10:06.322Z,26.25
2016-04-16T10:11:06.356Z,26.43
2016-04-16T10:12:06.375Z,26.25
2016-04-16T10:13:06.408Z,26.34
2016-04-16T10:14:06.427Z,26.34
2016-04-16T10:15:06.461Z,26.43
2016-04-16T10:16:06.480Z,26.25
2016-04-16T10:17:06.513Z,26.34
2016-04-16T10:18:06.547Z,26.43
2016-04-16T10:19:06.581Z,26.34
2016-04-16T10:20:06.630Z,26.43
2016-04-16T10:21:06.632Z,26.25
2016-04-16T10:22:06.823Z,26.25
2016-04-16T10:23:06.670Z,26.25
2016-04-16T10:24:06.704Z,26.34
2016-04-16T10:25:06.738Z,26.53
2016-04-16T10:26:06.756Z,26.53
2016-04-16T10:27:06.821Z,26.25
2016-04-16T10:28:06.823Z,26.25
2016-04-16T10:29:06.842Z,26.15
2016-04-16T10:30:06.875Z,26.05
2016-04-16T10:31:06.894Z,26.25
2016-04-16T10:32:06.928Z,26.43
2016-04-16T10:33:06.962Z,26.34
2016-04-16T10:34:06.980Z,26.43
2016-04-16T10:35:07.030Z,26.63
2016-04-16T10:36:07.033Z,26.34
2016-04-16T10:37:07.145Z,26.92
2016-04-16T10:38:07.101Z,26.73
2016-04-16T10:39:07.119Z,26.53
2016-04-16T10:40:07.184Z,26.53
2016-04-16T10:41:07.202Z,26.43
2016-04-16T10:42:07.205Z,26.34
2016-04-16T10:43:07.239Z,26.43
2016-04-16T10:44:07.258Z,26.43
2016-04-16T10:45:07.291Z,26.43
2016-04-16T10:46:07.310Z,26.63
2016-04-16T10:47:07.344Z,26.73
2016-04-16T10:48:07.362Z,26.82
2016-04-16T10:49:07.396Z,26.82
2016-04-16T10:50:07.429Z,27.11
2016-04-16T10:51:07.479Z,26.92
2016-04-16T10:52:07.528Z,26.92
2016-04-16T10:53:07.500Z,27.01
2016-04-16T10:54:07.534Z,26.92
2016-04-16T10:55:07.553Z,26.92
2016-04-16T10:56:07.586Z,27.01
2016-04-16T10:57:07.620Z,26.82
2016-04-16T10:58:07.639Z,26.82
2016-04-16T10:59:07.704Z,27.01
2016-04-16T11:00:07.707Z,27.11
2016-04-16T11:01:07.726Z,27.01
2016-04-16T11:02:07.743Z,26.92
2016-04-16T11:03:07.778Z,27.01
2016-04-16T11:04:07.795Z,27.01
2016-04-16T11:05:07.861Z,27.21
2016-04-16T11:06:07.863Z,27.21
2016-04-16T11:07:07.928Z,27.01
2016-04-16T11:08:07.931Z,27.31
2016-04-16T11:09:07.934Z,27.01
2016-04-16T11:10:07.969Z,27.4
2016-04-16T11:11:08.002Z,27.31
2016-04-16T11:12:08.036Z,27.21
2016-04-16T11:13:08.054Z,27.31
2016-04-16T11:14:08.088Z,27.21
2016-04-16T11:15:08.106Z,27.21
2016-04-16T11:16:08.202Z,27.11
2016-04-16T11:17:08.158Z,27.11
2016-04-16T11:18:08.208Z,27.21
2016-04-16T11:19:08.226Z,27.21
2016-04-16T11:20:08.245Z,27.21
2016-04-16T11:21:08.279Z,27.11
2016-04-16T11:22:08.391Z,27.11
2016-04-16T11:23:08.331Z,27.01
2016-04-16T11:24:08.365Z,26.92
2016-04-16T11:25:08.384Z,26.92
2016-04-16T11:26:08.401Z,27.11
2016-04-16T11:27:08.451Z,26.92
2016-04-16T11:28:08.470Z,27.11
2016-04-16T11:29:08.503Z,27.11
2016-04-16T11:30:08.522Z,27.5
2016-04-16T11:31:08.555Z,27.79
2016-04-16T11:32:08.574Z,27.4
2016-04-16T11:33:08.608Z,27.7
2016-04-16T11:34:08.642Z,27.31
2016-04-16T11:35:08.661Z,27.7
2016-04-16T11:36:08.694Z,27.5
2016-04-16T11:37:08.744Z,27.6
2016-04-16T11:38:08.747Z,27.6
2016-04-16T11:39:08.764Z,27.6
2016-04-16T11:40:08.799Z,27.6
2016-04-16T11:41:08.817Z,27.6
2016-04-16T11:42:08.850Z,27.7
2016-04-16T11:43:08.885Z,27.79
2016-04-16T11:44:08.903Z,27.98
2016-04-16T11:45:08.937Z,27.5
2016-04-16T11:46:08.955Z,27.98
2016-04-16T11:47:09.005Z,27.89
2016-04-16T11:48:09.038Z,27.79
2016-04-16T11:49:09.057Z,27.7
2016-04-16T11:50:09.091Z,27.5
2016-04-16T11:51:09.153Z,27.5
2016-04-16T11:52:09.106Z,27.5
2016-04-16T11:53:09.309Z,27.6
2016-04-16T11:54:09.418Z,27.4
2016-04-16T11:55:09.434Z,27.6
2016-04-16T11:56:09.485Z,27.5
2016-04-16T11:57:09.518Z,27.6
2016-04-16T11:58:09.552Z,27.5
2016-04-16T11:59:09.618Z,27.5
2016-04-16T12:00:09.652Z,28.18
2016-04-16T12:01:09.706Z,28.18
2016-04-16T12:02:09.732Z,27.6
2016-04-16T12:03:09.740Z,28.08
2016-04-16T12:04:09.795Z,27.79
2016-04-16T12:05:09.835Z,28.08
2016-04-16T12:06:09.855Z,28.08
2016-04-16T12:07:09.954Z,28.18
2016-04-16T12:08:09.897Z,28.28
2016-04-16T12:09:09.932Z,28.18
2016-04-16T12:10:09.970Z,28.08
2016-04-16T12:11:10.004Z,27.98
2016-04-16T12:12:10.039Z,27.98
2016-04-16T12:13:10.058Z,28.08
2016-04-16T12:14:10.076Z,28.28
2016-04-16T12:15:10.112Z,28.18
2016-04-16T12:16:10.146Z,28.08
2016-04-16T12:17:10.164Z,28.18
2016-04-16T12:18:10.215Z,28.18
2016-04-16T12:19:10.217Z,28.08
2016-04-16T12:20:10.253Z,28.08
2016-04-16T12:21:10.270Z,28.18
2016-04-16T12:22:10.304Z,28.08
2016-04-16T12:23:10.338Z,28.08
2016-04-16T12:24:10.372Z,28.08
2016-04-16T12:25:10.391Z,28.08
2016-04-16T12:26:10.425Z,28.08
2016-04-16T12:27:10.442Z,27.98
2016-04-16T12:28:10.492Z,28.28
2016-04-16T12:29:10.495Z,28.28
2016-04-16T12:30:10.529Z,27.98
2016-04-16T12:31:10.578Z,28.18
2016-04-16T12:32:10.581Z,28.28
2016-04-16T12:33:10.616Z,28.38
2016-04-16T12:34:10.633Z,28.28
2016-04-16T12:35:10.667Z,28.18
2016-04-16T12:36:10.686Z,28.28
2016-04-16T12:37:10.704Z,28.38
2016-04-16T12:38:10.738Z,28.28
2016-04-16T12:39:10.772Z,28.38
2016-04-16T12:40:10.806Z,28.38
2016-04-16T12:41:10.840Z,28.47
2016-04-16T12:42:10.858Z,28.18
2016-04-16T12:43:10.876Z,28.08
2016-04-16T12:44:10.942Z,28.18
2016-04-16T12:45:10.929Z,28.08
2016-04-16T12:46:10.978Z,28.18
2016-04-16T12:47:10.996Z,28.18
2016-04-16T12:48:11.014Z,28.56
2016-04-16T12:49:11.049Z,28.56
2016-04-16T12:50:11.083Z,28.66
2016-04-16T12:51:11.086Z,28.18
2016-04-16T12:52:11.151Z,28.38
2016-04-16T12:53:11.153Z,28.28
2016-04-16T12:54:11.187Z,28.56
2016-04-16T12:55:11.205Z,28.08
2016-04-16T12:56:11.239Z,28.56